Time,TemperatureF,DewpointF,PressureIn,WindDirection,WindDirectionDegrees,WindSpeedMPH,WindSpeedGustMPH,Humidity,HourlyPrecipIn,Conditions,Clouds,dailyrainin,SoftwareType,DateUTC
2013-03-05 00:13:00,33.1,23.7,29.67,ESE,112,2.7,-999.0,68,-99.99,,,0.00,Acu-Link.com,2013-03-05 05:13:00,
2013-03-05 00:28:00,32.7,23.3,29.67,NE,45,8.3,-999.0,68,-99.99,,,0.00,Acu-Link.com,2013-03-05 05:28:00,
2013-03-05 00:43:00,32.2,23.2,29.68,ENE,67,5.8,-999.0,69,-99.99,,,0.00,Acu-Link.com,2013-03-05 05:43:00,
2013-03-05 00:58:00,31.6,23.0,29.68,WNW,292,5.8,-999.0,70,-99.99,,,0.00,Acu-Link.com,2013-03-05 05:58:00,
2013-03-05 01:14:00,31.3,23.0,29.69,North,0,1.7,-999.0,71,-99.99,,,0.00,Acu-Link.com,2013-03-05 06:14:00,
2013-03-05 01:29:00,31.6,23.0,29.70,West,270,4.2,-999.0,70,-99.99,,,0.00,Acu-Link.com,2013-03-05 06:29:00,
2013-03-05 01:44:00,31.8,23.2,29.70,WNW,292,3.2,-999.0,70,-99.99,,,0.00,Acu-Link.com,2013-03-05 06:44:00,
2013-03-05 01:59:00,32.0,23.0,29.70,West,270,2.7,-999.0,69,-99.99,,,0.00,Acu-Link.com,2013-03-05 06:59:00,
2013-03-05 02:14:00,32.0,23.0,29.70,West,270,3.2,-999.0,69,-99.99,,,0.00,Acu-Link.com,2013-03-05 07:14:00,
2013-03-05 02:29:00,32.0,23.0,29.70,North,0,4.7,-999.0,69,-99.99,,,0.00,Acu-Link.com,2013-03-05 07:29:00,
2013-03-05 02:44:00,32.0,23.0,29.71,North,0,5.3,-999.0,69,-99.99,,,0.00,Acu-Link.com,2013-03-05 07:44:00,
2013-03-05 02:59:00,32.0,23.0,29.71,ESE,112,2.2,-999.0,69,-99.99,,,0.00,Acu-Link.com,2013-03-05 07:59:00,
2013-03-05 03:14:00,32.0,23.0,29.72,West,270,4.2,-999.0,69,-99.99,,,0.00,Acu-Link.com,2013-03-05 08:14:00,
2013-03-05 03:30:00,32.0,23.0,29.73,SSE,157,2.7,-999.0,69,-99.99,,,0.00,Acu-Link.com,2013-03-05 08:30:00,
2013-03-05 03:45:00,31.8,22.8,29.73,SSE,157,3.7,-999.0,69,-99.99,,,0.00,Acu-Link.com,2013-03-05 08:45:00,
2013-03-05 04:00:00,31.8,22.8,29.74,SE,135,2.7,-999.0,69,-99.99,,,0.00,Acu-Link.com,2013-03-05 09:00:00,
2013-03-05 04:15:00,31.6,22.6,29.75,WNW,292,4.7,-999.0,69,-99.99,,,0.00,Acu-Link.com,2013-03-05 09:15:00,
2013-03-05 04:30:00,31.5,22.9,29.76,NNE,22,6.3,-999.0,70,-99.99,,,0.00,Acu-Link.com,2013-03-05 09:30:00,
2013-03-05 04:45:00,30.9,22.6,29.77,ENE,67,4.2,-999.0,71,-99.99,,,0.00,Acu-Link.com,2013-03-05 09:45:00,
2013-03-05 05:00:00,30.6,22.7,29.77,West,270,3.2,-999.0,72,-99.99,,,0.00,Acu-Link.com,2013-03-05 10:00:00,
2013-03-05 05:15:00,30.2,22.3,29.78,NNW,337,2.7,-999.0,72,-99.99,,,0.00,Acu-Link.com,2013-03-05 10:15:00,
2013-03-05 05:30:00,30.2,22.6,29.78,ENE,67,2.2,-999.0,73,-99.99,,,0.00,Acu-Link.com,2013-03-05 10:30:00,
2013-03-05 05:46:00,30.7,22.8,29.79,North,0,6.3,-999.0,72,-99.99,,,0.00,Acu-Link.com,2013-03-05 10:46:00,
2013-03-05 06:01:00,30.9,23.0,29.79,North,0,2.7,-999.0,72,-99.99,,,0.00,Acu-Link.com,2013-03-05 11:01:00,
2013-03-05 06:16:00,30.9,23.0,29.80,North,0,5.3,-999.0,72,-99.99,,,0.00,Acu-Link.com,2013-03-05 11:16:00,
2013-03-05 06:31:00,31.1,23.1,29.80,West,270,4.2,-999.0,72,-99.99,,,0.00,Acu-Link.com,2013-03-05 11:31:00,
2013-03-05 06:46:00,31.6,23.3,29.81,NW,315,5.3,-999.0,71,-99.99,,,0.00,Acu-Link.com,2013-03-05 11:46:00,
2013-03-05 07:01:00,32.0,23.3,29.81,NNE,22,5.8,-999.0,70,-99.99,,,0.00,Acu-Link.com,2013-03-05 12:01:00,
2013-03-05 07:16:00,32.5,23.8,29.82,NNW,337,5.8,-999.0,70,-99.99,,,0.00,Acu-Link.com,2013-03-05 12:16:00,
2013-03-05 07:31:00,32.9,23.9,29.83,West,270,2.2,-999.0,69,-99.99,,,0.00,Acu-Link.com,2013-03-05 12:31:00,
2013-03-05 07:46:00,33.6,24.2,29.83,NE,45,5.3,-999.0,68,-99.99,,,0.00,Acu-Link.com,2013-03-05 12:46:00,
2013-03-05 08:02:00,34.0,24.2,29.84,West,270,5.3,-999.0,67,-99.99,,,0.00,Acu-Link.com,2013-03-05 13:02:00,
2013-03-05 08:17:00,35.1,24.5,29.84,West,270,4.2,-999.0,65,-99.99,,,0.00,Acu-Link.com,2013-03-05 13:17:00,
2013-03-05 08:32:00,35.8,24.8,29.85,WNW,292,4.2,-999.0,64,-99.99,,,0.00,Acu-Link.com,2013-03-05 13:32:00,
2013-03-05 08:47:00,37.4,26.0,29.85,NE,45,5.3,-999.0,63,-99.99,,,0.00,Acu-Link.com,2013-03-05 13:47:00,
2013-03-05 09:02:00,38.1,25.9,29.85,West,270,3.7,-999.0,61,-99.99,,,0.00,Acu-Link.com,2013-03-05 14:02:00,
2013-03-05 09:17:00,38.7,26.0,29.85,NW,315,3.7,-999.0,60,-99.99,,,0.00,Acu-Link.com,2013-03-05 14:17:00,
2013-03-05 09:32:00,38.5,26.6,29.86,East,90,7.3,-999.0,62,-99.99,,,0.00,Acu-Link.com,2013-03-05 14:32:00,
2013-03-05 09:47:00,39.0,26.7,29.86,NNE,22,4.7,-999.0,61,-99.99,,,0.00,Acu-Link.com,2013-03-05 14:47:00,
2013-03-05 10:02:00,39.4,27.1,29.86,ENE,67,5.3,-999.0,61,-99.99,,,0.00,Acu-Link.com,2013-03-05 15:02:00,
2013-03-05 10:18:00,39.9,27.2,29.87,West,270,6.8,-999.0,60,-99.99,,,0.00,Acu-Link.com,2013-03-05 15:18:00,
2013-03-05 10:33:00,40.1,27.7,29.87,ESE,112,5.3,-999.0,61,-99.99,,,0.00,Acu-Link.com,2013-03-05 15:33:00,
2013-03-05 10:48:00,40.3,28.3,29.86,NNE,22,3.7,-999.0,62,-99.99,,,0.00,Acu-Link.com,2013-03-05 15:48:00,
2013-03-05 11:03:00,40.3,28.3,29.87,NNE,22,2.2,-999.0,62,-99.99,,,0.00,Acu-Link.com,2013-03-05 16:03:00,
2013-03-05 11:18:00,41.7,29.3,29.87,East,90,4.7,-999.0,61,-99.99,,,0.00,Acu-Link.com,2013-03-05 16:18:00,
2013-03-05 11:33:00,42.6,29.3,29.88,NE,45,6.8,-999.0,59,-99.99,,,0.00,Acu-Link.com,2013-03-05 16:33:00,
2013-03-05 11:48:00,42.3,29.4,29.88,WSW,247,4.7,-999.0,60,-99.99,,,0.00,Acu-Link.com,2013-03-05 16:48:00,
2013-03-05 12:03:00,42.6,29.7,29.87,North,0,5.3,-999.0,60,-99.99,,,0.00,Acu-Link.com,2013-03-05 17:03:00,
2013-03-05 12:18:00,43.3,29.9,29.88,ENE,67,5.8,-999.0,59,-99.99,,,0.00,Acu-Link.com,2013-03-05 17:18:00,
2013-03-05 12:34:00,43.5,30.5,29.87,NNE,22,6.3,-999.0,60,-99.99,,,0.00,Acu-Link.com,2013-03-05 17:34:00,
2013-03-05 12:49:00,43.7,30.3,29.87,ESE,112,6.3,-999.0,59,-99.99,,,0.00,Acu-Link.com,2013-03-05 17:49:00,
2013-03-05 13:04:00,43.3,30.4,29.87,East,90,8.3,-999.0,60,-99.99,,,0.00,Acu-Link.com,2013-03-05 18:04:00,
2013-03-05 13:19:00,44.6,31.6,29.87,ENE,67,1.7,-999.0,60,-99.99,,,0.00,Acu-Link.com,2013-03-05 18:19:00,
2013-03-05 13:34:00,43.7,31.1,29.88,East,90,5.3,-999.0,61,-99.99,,,0.00,Acu-Link.com,2013-03-05 18:34:00,
2013-03-05 13:49:00,43.0,31.3,29.89,East,90,4.2,-999.0,63,-99.99,,,0.00,Acu-Link.com,2013-03-05 18:49:00,
2013-03-05 14:04:00,42.6,30.1,29.89,SW,225,1.7,-999.0,61,-99.99,,,0.00,Acu-Link.com,2013-03-05 19:04:00,
2013-03-05 14:19:00,42.8,30.7,29.90,ENE,67,3.2,-999.0,62,-99.99,,,0.00,Acu-Link.com,2013-03-05 19:19:00,
2013-03-05 14:34:00,43.0,30.9,29.90,ESE,112,4.7,-999.0,62,-99.99,,,0.00,Acu-Link.com,2013-03-05 19:34:00,
2013-03-05 14:50:00,43.2,31.1,29.90,North,0,7.8,-999.0,62,-99.99,,,0.00,Acu-Link.com,2013-03-05 19:50:00,
2013-03-05 15:05:00,43.3,31.6,29.91,East,90,4.2,-999.0,63,-99.99,,,0.00,Acu-Link.com,2013-03-05 20:05:00,
2013-03-05 15:20:00,42.4,31.9,29.93,ESE,112,4.2,-999.0,66,-99.99,,,0.00,Acu-Link.com,2013-03-05 20:20:00,
2013-03-05 15:35:00,42.4,32.2,29.93,ESE,112,6.3,-999.0,67,-99.99,,,0.00,Acu-Link.com,2013-03-05 20:35:00,
2013-03-05 15:50:00,42.6,32.4,29.93,East,90,4.7,-999.0,67,-99.99,,,0.00,Acu-Link.com,2013-03-05 20:50:00,
2013-03-05 16:05:00,42.4,31.9,29.93,East,90,3.2,-999.0,66,-99.99,,,0.00,Acu-Link.com,2013-03-05 21:05:00,
2013-03-05 16:20:00,41.9,31.4,29.94,East,90,2.2,-999.0,66,-99.99,,,0.00,Acu-Link.com,2013-03-05 21:20:00,
2013-03-05 16:35:00,41.5,31.4,29.94,NE,45,7.3,-999.0,67,-99.99,,,0.00,Acu-Link.com,2013-03-05 21:35:00,
2013-03-05 16:50:00,41.4,32.0,29.95,ESE,112,2.7,-999.0,69,-99.99,,,0.00,Acu-Link.com,2013-03-05 21:50:00,
2013-03-05 17:06:00,41.2,31.8,29.95,East,90,3.2,-999.0,69,-99.99,,,0.00,Acu-Link.com,2013-03-05 22:06:00,
2013-03-05 17:21:00,40.6,31.9,29.95,ENE,67,4.7,-999.0,71,-99.99,,,0.00,Acu-Link.com,2013-03-05 22:21:00,
2013-03-05 17:36:00,40.3,32.0,29.96,NNE,22,3.2,-999.0,72,-99.99,,,0.00,Acu-Link.com,2013-03-05 22:36:00,
2013-03-05 17:51:00,39.6,31.3,29.96,NW,315,3.7,-999.0,72,-99.99,,,0.00,Acu-Link.com,2013-03-05 22:51:00,
2013-03-05 18:06:00,38.8,31.6,29.96,ENE,67,1.7,-999.0,75,-99.99,,,0.00,Acu-Link.com,2013-03-05 23:06:00,
2013-03-05 18:21:00,38.1,31.5,29.97,ESE,112,2.2,-999.0,77,-99.99,,,0.00,Acu-Link.com,2013-03-05 23:21:00,
2013-03-05 18:36:00,37.4,31.5,29.97,NE,45,2.7,-999.0,79,-99.99,,,0.00,Acu-Link.com,2013-03-05 23:36:00,
2013-03-05 18:51:00,37.0,31.4,29.97,East,90,1.7,-999.0,80,-99.99,,,0.00,Acu-Link.com,2013-03-05 23:51:00,
2013-03-05 19:06:00,36.1,31.1,29.97,ENE,67,2.2,-999.0,82,-99.99,,,0.00,Acu-Link.com,2013-03-06 00:06:00,
2013-03-05 19:22:00,35.1,30.8,29.98,SSE,157,0.0,-999.0,84,-99.99,,,0.00,Acu-Link.com,2013-03-06 00:22:00,
2013-03-05 19:37:00,34.0,30.0,29.99,WSW,247,0.0,-999.0,85,-99.99,,,0.00,Acu-Link.com,2013-03-06 00:37:00,
2013-03-05 19:52:00,32.5,29.3,29.98,SW,225,0.0,-999.0,88,-99.99,,,0.00,Acu-Link.com,2013-03-06 00:52:00,
2013-03-05 20:07:00,31.1,28.5,29.98,WSW,247,0.0,-999.0,90,-99.99,,,0.00,Acu-Link.com,2013-03-06 01:07:00,
2013-03-05 20:22:00,29.7,27.9,29.97,SW,225,0.0,-999.0,93,-99.99,,,0.00,Acu-Link.com,2013-03-06 01:22:00,
2013-03-05 20:37:00,28.8,27.3,29.98,WSW,247,0.0,-999.0,94,-99.99,,,0.00,Acu-Link.com,2013-03-06 01:37:00,
2013-03-05 20:52:00,28.2,27.0,29.99,WSW,247,0.0,-999.0,95,-99.99,,,0.00,Acu-Link.com,2013-03-06 01:52:00,
2013-03-05 21:07:00,28.2,27.0,29.97,West,270,0.0,-999.0,95,-99.99,,,0.00,Acu-Link.com,2013-03-06 02:07:00,
2013-03-05 21:22:00,27.7,26.5,29.97,WSW,247,1.7,-999.0,95,-99.99,,,0.00,Acu-Link.com,2013-03-06 02:22:00,
2013-03-05 21:38:00,27.9,26.9,29.98,WSW,247,0.0,-999.0,96,-99.99,,,0.00,Acu-Link.com,2013-03-06 02:38:00,
2013-03-05 21:53:00,27.9,26.9,29.97,WSW,247,0.0,-999.0,96,-99.99,,,0.00,Acu-Link.com,2013-03-06 02:53:00,
2013-03-05 22:08:00,27.5,26.5,29.98,WSW,247,0.0,-999.0,96,-99.99,,,0.00,Acu-Link.com,2013-03-06 03:08:00,
2013-03-05 22:23:00,27.1,26.4,29.99,WSW,247,0.0,-999.0,97,-99.99,,,0.00,Acu-Link.com,2013-03-06 03:23:00,
2013-03-05 22:38:00,26.8,26.1,29.99,WSW,247,1.7,-999.0,97,-99.99,,,0.00,Acu-Link.com,2013-03-06 03:38:00,
2013-03-05 22:53:00,26.6,26.1,30.00,WSW,247,0.0,-999.0,98,-99.99,,,0.00,Acu-Link.com,2013-03-06 03:53:00,
2013-03-05 23:08:00,26.2,25.7,29.99,WSW,247,0.0,-999.0,98,-99.99,,,0.00,Acu-Link.com,2013-03-06 04:08:00,
2013-03-05 23:23:00,26.8,26.6,29.98,West,270,0.0,-999.0,99,-99.99,,,0.00,Acu-Link.com,2013-03-06 04:23:00,
2013-03-05 23:38:00,27.0,26.8,29.98,West,270,0.0,-999.0,99,-99.99,,,0.00,Acu-Link.com,2013-03-06 04:38:00,
2013-03-05 23:54:00,27.1,26.9,29.97,West,270,0.0,-999.0,99,-99.99,,,0.00,Acu-Link.com,2013-03-06 04:54:00,